Main page
METAR-TAF:

METAR-TAF

Airports :

Stornoway, Scotland

Stornoway Airport

latitude: 58-13N, longitude: 006-19W, elevation: 9 m

Current weather observation

The report was made 29 minutes ago, at 08:50 UTC
Wind 9 kt from the East/Southeast
Temperature 10°C
Humidity 82%
Pressure 1013 hPa
Visibility 10 km or more
Few clouds at a height of 900 ft
Scattered clouds at a height of 2800 ft
Broken clouds at a height of 4000 ft

METAR: EGPO 290850Z 12009KT 9999 FEW009 SCT028 BKN040 10/07 Q1013

Time: 10:19 (09:19 UTC)

Forecast

The report was made 1 hour and 22 minutes ago, at 07:57 UTC
Forecast valid from 29 at 09 UTC to 29 at 18 UTC
Wind 15 kt from the East/Southeast with gusts up to 25 kt
Visibility 10 km or more
Scattered clouds at a height of 3000 ft
Temporary
from 29 at 12 UTC to 29 at 15 UTC
Visibility: 4500 m
Broken clouds at a height of 1200 ft
rain, drizzle

TAF: EGPO 290757Z 2909/2918 12015G25KT 9999 SCT030 TEMPO 2912/2915 4500 RADZ BKN012

Weather observations and forecasts of more than 4000 airports (METAR and TAF reports).

The available stations are represented by yellow and red dots on the map.

Hover mouse over dot to see the name of the station.

Then click to see weather observations and forecasts.

To change the map : click on the green buttons with a black cross to zoom in, on the green button with a dash to zoom out, or on the green arrows for adjacent maps.


METAR-TAF: